Time;durP1;ratioP1;P1;durP2;ratioP2;P2;SDS_P1;SDS_P2;PMS_P1;PMS_P2;Temp;Humidity;BMP_temperature;BMP_pressure;BME280_temperature;BME280_humidity;BME280_pressure;Samples;Min_cycle;Max_cycle;Signal;HPM_P1;HPM_P2
2021/03/06 00:00:04;;;;;;;5.90;5.30;;;5.00;55.80;;;;;;6225055;28;20511;-59
2021/03/06 00:03:08;;;;;;;7.03;5.93;;;5.00;55.80;;;;;;6175614;28;20465;-59
2021/03/06 00:06:11;;;;;;;6.33;4.73;;;5.00;55.80;;;;;;6176702;28;20478;-59
2021/03/06 00:09:15;;;;;;;5.73;4.67;;;5.10;55.80;;;;;;6176475;28;20545;-59
2021/03/06 00:12:18;;;;;;;5.40;4.90;;;5.10;56.00;;;;;;6204785;28;20495;-59
2021/03/06 00:15:23;;;;;;;8.13;5.60;;;5.00;55.80;;;;;;6212582;28;20576;-59
2021/03/06 00:18:29;;;;;;;5.10;4.60;;;5.00;55.80;;;;;;6175382;28;20477;-59
2021/03/06 00:21:32;;;;;;;6.90;5.43;;;5.00;56.30;;;;;;6206917;28;20496;-59
2021/03/06 00:24:34;;;;;;;4.80;4.33;;;4.90;57.20;;;;;;6215334;28;20971;-59
2021/03/06 00:27:37;;;;;;;5.83;5.13;;;4.80;58.20;;;;;;6216300;28;20482;-59
2021/03/06 00:30:39;;;;;;;5.77;5.27;;;4.80;58.80;;;;;;6216841;28;20468;-59
2021/03/06 00:33:42;;;;;;;5.43;4.80;;;4.80;59.60;;;;;;6221795;28;20471;-59
2021/03/06 00:36:45;;;;;;;6.90;4.97;;;4.80;59.40;;;;;;6222221;28;20472;-60
2021/03/06 00:39:47;;;;;;;5.23;4.80;;;4.70;59.40;;;;;;6224108;28;20495;-60
2021/03/06 00:42:49;;;;;;;5.20;4.80;;;4.70;59.10;;;;;;6223612;28;20482;-60
2021/03/06 00:45:52;;;;;;;5.37;4.87;;;4.70;59.00;;;;;;6224278;28;20472;-59
2021/03/06 00:48:55;;;;;;;6.00;5.20;;;4.50;59.20;;;;;;6224600;28;20614;-62
2021/03/06 00:51:57;;;;;;;9.00;5.73;;;4.50;59.30;;;;;;6222733;28;20487;-61
2021/03/06 00:55:00;;;;;;;5.17;4.60;;;4.50;59.40;;;;;;6223811;28;20995;-61
2021/03/06 00:58:03;;;;;;;6.20;5.60;;;4.50;59.20;;;;;;6223471;28;20816;-61
2021/03/06 01:01:06;;;;;;;7.90;5.13;;;4.40;59.40;;;;;;6223357;28;20468;-60
2021/03/06 01:04:10;;;;;;;7.10;6.40;;;4.30;59.40;;;;;;6223511;28;20468;-60
2021/03/06 01:07:12;;;;;;;9.30;8.30;;;4.30;59.00;;;;;;6223040;28;20606;-61
2021/03/06 01:10:18;;;;;;;21.57;16.17;;;4.30;59.00;;;;;;6222898;28;20463;-59
2021/03/06 01:13:21;;;;;;;34.37;30.37;;;4.30;59.40;;;;;;6219354;28;20547;-60
2021/03/06 01:16:25;;;;;;;14.43;10.77;;;4.30;59.00;;;;;;6223450;28;20974;-62
2021/03/06 01:19:29;;;;;;;10.90;9.87;;;4.40;58.90;;;;;;6210914;28;20819;-61
2021/03/06 01:22:31;;;;;;;9.67;8.57;;;4.40;58.60;;;;;;6224542;28;20555;-60
2021/03/06 01:25:34;;;;;;;8.50;7.23;;;4.40;58.60;;;;;;6227411;28;20819;-60
2021/03/06 01:28:36;;;;;;;6.80;6.23;;;4.50;58.50;;;;;;6229261;28;20963;-61
2021/03/06 01:31:38;;;;;;;7.57;5.13;;;4.50;59.20;;;;;;6228865;28;20467;-59
2021/03/06 01:34:42;;;;;;;5.20;4.80;;;4.20;59.80;;;;;;6228898;28;20476;-60
2021/03/06 01:37:44;;;;;;;5.80;4.90;;;4.10;60.10;;;;;;6228721;28;20472;-60
2021/03/06 01:40:46;;;;;;;6.43;5.70;;;4.10;59.80;;;;;;6228636;28;20979;-60
2021/03/06 01:43:51;;;;;;;6.10;5.50;;;4.10;59.60;;;;;;6229174;28;20468;-60
2021/03/06 01:46:54;;;;;;;5.43;4.70;;;4.20;59.50;;;;;;6228299;28;20479;-60
2021/03/06 01:49:57;;;;;;;9.87;5.33;;;4.20;59.30;;;;;;6228584;28;20476;-60
2021/03/06 01:53:01;;;;;;;5.37;4.90;;;4.20;59.30;;;;;;6228709;28;20483;-60
2021/03/06 01:56:04;;;;;;;5.70;5.20;;;4.20;59.30;;;;;;6228308;28;20502;-60
2021/03/06 01:59:06;;;;;;;5.97;4.70;;;4.00;60.10;;;;;;6228492;28;20498;-60
2021/03/06 02:02:08;;;;;;;5.37;4.70;;;4.00;59.70;;;;;;6228597;28;20480;-60
2021/03/06 02:05:13;;;;;;;6.20;5.20;;;4.00;59.90;;;;;;6228045;28;20472;-60
2021/03/06 02:08:15;;;;;;;5.67;5.17;;;4.10;60.00;;;;;;6227886;28;20487;-60
2021/03/06 02:11:31;;;;;;;7.13;5.90;;;4.10;60.00;;;;;;6227839;28;20468;-61
2021/03/06 02:14:51;;;;;;;5.27;4.77;;;4.10;59.90;;;;;;6227834;28;20480;-60
2021/03/06 02:17:58;;;;;;;4.50;4.10;;;4.10;59.90;;;;;;6227650;28;20480;-60
2021/03/06 02:21:04;;;;;;;6.07;4.33;;;4.20;60.20;;;;;;6218950;28;20421;-60
2021/03/06 02:24:30;;;;;;;5.40;4.90;;;4.20;60.20;;;;;;6228023;28;20475;-60
2021/03/06 02:27:38;;;;;;;6.73;5.30;;;4.20;60.50;;;;;;6227493;28;20477;-60
2021/03/06 02:30:42;;;;;;;5.23;4.70;;;4.10;60.40;;;;;;6227741;28;20479;-60
2021/03/06 02:33:51;;;;;;;5.67;5.00;;;4.10;60.90;;;;;;6227769;28;20469;-60
2021/03/06 02:36:58;;;;;;;6.23;5.73;;;4.10;61.40;;;;;;6226912;28;20473;-60
2021/03/06 02:40:02;;;;;;;6.57;4.90;;;4.10;61.50;;;;;;6227760;28;20479;-60
2021/03/06 02:43:06;;;;;;;5.00;4.50;;;4.10;61.20;;;;;;6227359;28;20472;-60
2021/03/06 02:46:10;;;;;;;5.07;4.67;;;4.00;61.30;;;;;;6227265;28;20472;-60
2021/03/06 02:49:13;;;;;;;6.90;6.30;;;4.00;61.40;;;;;;6227211;28;20480;-60
2021/03/06 02:52:15;;;;;;;6.87;6.27;;;4.00;61.60;;;;;;6227222;28;20824;-60
2021/03/06 02:55:17;;;;;;;6.30;5.73;;;4.00;61.80;;;;;;6226987;28;20468;-60
2021/03/06 02:58:24;;;;;;;6.40;5.80;;;3.90;62.40;;;;;;6227026;28;20491;-60
2021/03/06 03:01:36;;;;;;;6.20;5.60;;;3.80;62.60;;;;;;6227032;28;20468;-60
2021/03/06 03:04:48;;;;;;;6.30;5.70;;;3.70;63.30;;;;;;6227032;28;20614;-60
2021/03/06 03:07:54;;;;;;;6.40;5.57;;;3.70;63.30;;;;;;6227422;28;20495;-60
2021/03/06 03:10:59;;;;;;;5.40;4.90;;;3.70;63.50;;;;;;6226614;28;20993;-60
2021/03/06 03:14:03;;;;;;;5.80;4.90;;;3.60;63.80;;;;;;6226952;28;20479;-61
2021/03/06 03:17:12;;;;;;;6.10;5.50;;;3.60;63.90;;;;;;6226305;28;20476;-60
2021/03/06 03:20:24;;;;;;;5.73;5.13;;;3.60;65.00;;;;;;6226281;28;20476;-60
2021/03/06 03:23:32;;;;;;;5.13;4.60;;;3.60;64.30;;;;;;6226358;28;20972;-60
2021/03/06 03:26:40;;;;;;;5.63;5.13;;;3.60;63.90;;;;;;6221474;28;20481;-60
2021/03/06 03:29:43;;;;;;;6.80;6.20;;;3.50;63.90;;;;;;6226182;28;20472;-60
2021/03/06 03:32:47;;;;;;;7.40;5.73;;;3.40;64.40;;;;;;6226194;28;20464;-60
2021/03/06 03:35:50;;;;;;;6.43;5.77;;;3.40;63.20;;;;;;6225950;28;20464;-60
2021/03/06 03:38:54;;;;;;;7.37;5.20;;;3.30;63.30;;;;;;6226085;28;20904;-61
2021/03/06 03:41:57;;;;;;;5.93;5.40;;;3.30;63.70;;;;;;6226183;28;20455;-61
2021/03/06 03:44:59;;;;;;;5.40;4.70;;;3.20;63.80;;;;;;6226104;28;20471;-60
2021/03/06 03:48:03;;;;;;;4.90;4.43;;;3.20;64.20;;;;;;6226020;28;20491;-61
2021/03/06 03:51:06;;;;;;;5.83;5.33;;;3.10;64.40;;;;;;6226142;28;20471;-60
2021/03/06 03:54:09;;;;;;;6.03;5.43;;;3.10;65.10;;;;;;6226002;28;20456;-60
2021/03/06 03:57:11;;;;;;;6.00;5.50;;;3.10;65.20;;;;;;6225433;28;20809;-60
2021/03/06 04:00:15;;;;;;;12.07;7.50;;;3.00;65.70;;;;;;6225594;28;21095;-61
2021/03/06 04:03:21;;;;;;;8.20;7.33;;;3.00;66.00;;;;;;6225794;28;20472;-59
2021/03/06 04:06:23;;;;;;;8.97;8.03;;;3.00;65.80;;;;;;6225684;28;20472;-59
2021/03/06 04:09:26;;;;;;;9.30;7.33;;;3.00;65.90;;;;;;6225483;28;20559;-59
2021/03/06 04:12:28;;;;;;;7.00;6.03;;;3.00;65.90;;;;;;6225404;28;20472;-60
2021/03/06 04:15:30;;;;;;;6.17;5.50;;;3.00;65.80;;;;;;6225521;28;20484;-59
2021/03/06 04:18:33;;;;;;;7.17;5.57;;;3.00;65.00;;;;;;6225187;28;20618;-60
2021/03/06 04:21:35;;;;;;;5.40;5.00;;;2.90;64.30;;;;;;6225482;28;20476;-60
2021/03/06 04:24:37;;;;;;;5.30;4.83;;;2.90;63.20;;;;;;6225445;28;20471;-60
2021/03/06 04:27:39;;;;;;;6.33;4.20;;;2.70;63.00;;;;;;6225327;28;20483;-60
2021/03/06 04:30:42;;;;;;;4.27;3.97;;;2.70;63.00;;;;;;6220862;28;20817;-60
2021/03/06 04:33:45;;;;;;;4.43;4.03;;;2.70;61.30;;;;;;6225105;28;20815;-60
2021/03/06 04:36:47;;;;;;;5.50;3.90;;;2.60;61.50;;;;;;6225405;28;20611;-60
2021/03/06 04:39:49;;;;;;;4.70;4.30;;;2.60;60.50;;;;;;6225243;28;20486;-59
2021/03/06 04:42:51;;;;;;;5.00;4.30;;;2.60;60.30;;;;;;6225191;28;20577;-59
2021/03/06 04:45:53;;;;;;;5.23;4.60;;;2.60;60.80;;;;;;6224956;28;20964;-60
2021/03/06 04:48:57;;;;;;;6.10;5.60;;;2.50;61.50;;;;;;6225382;28;20472;-60
2021/03/06 04:51:59;;;;;;;5.80;4.27;;;2.50;61.80;;;;;;6225162;28;20483;-60
2021/03/06 04:55:02;;;;;;;4.07;3.67;;;2.50;61.60;;;;;;6225083;28;20487;-60
2021/03/06 04:58:04;;;;;;;4.63;3.93;;;2.50;61.70;;;;;;6224808;28;20972;-60
2021/03/06 05:01:06;;;;;;;4.43;4.00;;;2.40;61.40;;;;;;6229157;28;20476;-60
2021/03/06 05:04:10;;;;;;;5.60;4.50;;;2.40;61.60;;;;;;6229792;28;20472;-60
2021/03/06 05:07:21;;;;;;;4.50;4.10;;;2.40;61.30;;;;;;6229761;28;20566;-61
2021/03/06 05:10:24;;;;;;;6.00;5.00;;;2.30;60.70;;;;;;6229309;28;20961;-60
2021/03/06 05:13:26;;;;;;;5.13;3.77;;;2.30;60.10;;;;;;6229824;28;20460;-60
2021/03/06 05:16:28;;;;;;;4.90;3.90;;;2.30;59.80;;;;;;6229085;28;20475;-59
2021/03/06 05:19:32;;;;;;;6.80;4.20;;;2.30;60.00;;;;;;6229081;28;20951;-60
2021/03/06 05:22:34;;;;;;;5.40;3.57;;;2.20;60.60;;;;;;6229770;28;20468;-60
2021/03/06 05:25:36;;;;;;;4.63;4.23;;;2.20;60.90;;;;;;6229119;28;20487;-60
2021/03/06 05:28:38;;;;;;;4.77;4.37;;;2.20;60.70;;;;;;6229383;28;20547;-59
2021/03/06 05:31:40;;;;;;;4.33;3.70;;;2.20;59.90;;;;;;6229500;28;20475;-59
2021/03/06 05:34:44;;;;;;;6.77;5.50;;;2.10;60.00;;;;;;6220224;28;20482;-60
2021/03/06 05:37:46;;;;;;;4.20;3.27;;;2.10;61.00;;;;;;6228665;28;20814;-59
2021/03/06 05:40:49;;;;;;;3.40;3.13;;;2.10;58.40;;;;;;6228687;28;20482;-60
2021/03/06 05:43:52;;;;;;;4.13;3.80;;;2.10;57.70;;;;;;6228684;28;20562;-59
2021/03/06 05:46:57;;;;;;;5.47;5.03;;;2.10;57.70;;;;;;6228667;28;20475;-60
2021/03/06 05:50:00;;;;;;;4.57;3.37;;;2.10;58.40;;;;;;6229084;28;20801;-60
2021/03/06 05:53:09;;;;;;;6.60;4.70;;;2.10;58.60;;;;;;6228255;28;20570;-60
2021/03/06 05:56:14;;;;;;;5.70;3.83;;;2.10;59.20;;;;;;6228267;28;20978;-60
2021/03/06 05:59:17;;;;;;;4.40;4.00;;;2.10;58.90;;;;;;6228284;28;20503;-60
2021/03/06 06:02:20;;;;;;;4.80;4.40;;;2.10;58.60;;;;;;6228295;28;20472;-60
2021/03/06 06:05:24;;;;;;;3.90;3.53;;;2.10;57.80;;;;;;6228151;28;20476;-59
2021/03/06 06:08:27;;;;;;;4.33;3.33;;;2.00;57.70;;;;;;6228079;28;20484;-60
2021/03/06 06:11:30;;;;;;;3.70;3.40;;;2.10;57.10;;;;;;6226674;28;20479;-59
2021/03/06 06:14:33;;;;;;;3.60;3.30;;;2.10;56.80;;;;;;6227931;28;20482;-59
2021/03/06 06:17:35;;;;;;;3.87;2.80;;;2.20;56.50;;;;;;6227523;28;20475;-59
2021/03/06 06:20:38;;;;;;;3.30;2.80;;;2.20;56.20;;;;;;6227699;28;21113;-59
2021/03/06 06:23:43;;;;;;;5.33;3.10;;;2.20;56.30;;;;;;6227778;28;20972;-59
2021/03/06 06:26:56;;;;;;;4.50;3.13;;;2.20;56.60;;;;;;6227180;28;20460;-59
2021/03/06 06:29:59;;;;;;;3.90;3.33;;;2.30;56.60;;;;;;6227493;28;20448;-59
2021/03/06 06:33:02;;;;;;;2.93;2.63;;;2.30;55.70;;;;;;6227458;28;20455;-60
2021/03/06 06:36:05;;;;;;;4.07;3.67;;;2.30;55.10;;;;;;6227270;28;20461;-61
2021/03/06 06:39:10;;;;;;;4.47;4.00;;;2.40;54.90;;;;;;6227669;28;20468;-60
2021/03/06 06:42:13;;;;;;;5.70;3.73;;;2.40;55.00;;;;;;6227873;28;20465;-60
2021/03/06 06:45:16;;;;;;;4.97;4.10;;;2.50;55.10;;;;;;6227699;28;20479;-60
2021/03/06 06:48:18;;;;;;;4.93;3.97;;;2.50;54.90;;;;;;6226934;28;20479;-61
2021/03/06 06:51:22;;;;;;;3.40;3.10;;;2.60;54.80;;;;;;6227048;28;20956;-61
2021/03/06 06:54:25;;;;;;;3.83;3.50;;;2.70;54.70;;;;;;6227418;28;20475;-61
2021/03/06 06:57:29;;;;;;;3.93;3.57;;;2.80;54.10;;;;;;6226876;28;20975;-59
2021/03/06 07:00:32;;;;;;;3.47;3.17;;;2.90;54.50;;;;;;6227252;28;20469;-59
2021/03/06 07:03:34;;;;;;;5.03;3.13;;;2.90;53.30;;;;;;6226935;28;20487;-59
2021/03/06 07:06:38;;;;;;;2.77;2.57;;;2.90;51.30;;;;;;6226593;28;20796;-59
2021/03/06 07:09:56;;;;;;;2.33;2.13;;;3.00;50.10;;;;;;6226439;28;20989;-59
2021/03/06 07:12:59;;;;;;;2.83;2.63;;;3.10;49.00;;;;;;6226287;28;20990;-59
2021/03/06 07:16:02;;;;;;;2.97;2.60;;;3.10;48.60;;;;;;6226820;28;20833;-59
2021/03/06 07:19:04;;;;;;;2.93;2.70;;;3.20;48.10;;;;;;6226420;28;20476;-59
2021/03/06 07:22:07;;;;;;;2.63;2.43;;;3.30;47.40;;;;;;6225103;28;20487;-59
2021/03/06 07:25:10;;;;;;;3.20;2.50;;;3.30;46.00;;;;;;6225434;28;20478;-59
2021/03/06 07:28:12;;;;;;;2.63;2.43;;;3.40;46.10;;;;;;6225387;28;20488;-59
2021/03/06 07:31:17;;;;;;;2.67;2.47;;;3.50;46.10;;;;;;6223799;28;20464;-59
2021/03/06 07:34:26;;;;;;;2.63;2.43;;;3.60;45.20;;;;;;6224959;28;20479;-59
2021/03/06 07:37:30;;;;;;;5.80;3.70;;;3.70;44.80;;;;;;6225556;28;20471;-59
2021/03/06 07:40:36;;;;;;;3.97;2.77;;;3.80;44.60;;;;;;6220038;28;20469;-59
2021/03/06 07:43:41;;;;;;;2.90;1.83;;;3.80;43.50;;;;;;6225238;28;20472;-60
2021/03/06 07:46:43;;;;;;;3.60;2.03;;;3.80;42.00;;;;;;6220705;28;20472;-60
2021/03/06 07:49:49;;;;;;;2.07;1.97;;;3.90;41.70;;;;;;6224786;28;20468;-60
2021/03/06 07:52:53;;;;;;;4.10;2.00;;;4.00;41.30;;;;;;6225148;28;20963;-58
2021/03/06 07:55:55;;;;;;;3.03;2.40;;;4.50;40.60;;;;;;6220238;28;20511;-58
2021/03/06 07:58:57;;;;;;;2.03;1.93;;;6.90;39.40;;;;;;6210384;28;21018;-58
2021/03/06 08:02:34;;;;;;;2.30;2.10;;;10.90;34.30;;;;;;6224998;28;20467;-59
2021/03/06 08:05:46;;;;;;;2.03;1.93;;;15.00;27.70;;;;;;6224987;28;20876;-59
2021/03/06 08:09:07;;;;;;;3.00;2.10;;;16.50;25.00;;;;;;6221060;28;20464;-59
2021/03/06 08:12:09;;;;;;;2.50;2.30;;;15.30;24.20;;;;;;6224121;28;20464;-58
2021/03/06 08:15:28;;;;;;;2.70;2.50;;;13.40;24.50;;;;;;6225499;28;20476;-58
2021/03/06 08:18:31;;;;;;;3.13;2.87;;;11.00;26.80;;;;;;6225174;28;20487;-59
2021/03/06 08:21:35;;;;;;;4.40;2.70;;;11.20;28.50;;;;;;6225111;28;21098;-59
2021/03/06 08:24:39;;;;;;;2.83;2.63;;;12.80;27.60;;;;;;6225135;28;20479;-59
2021/03/06 08:27:42;;;;;;;4.37;2.37;;;13.40;26.40;;;;;;6225315;28;20479;-58
2021/03/06 08:30:44;;;;;;;3.00;2.50;;;12.50;26.30;;;;;;6224687;28;20984;-59
2021/03/06 08:33:46;;;;;;;2.53;2.20;;;13.60;26.30;;;;;;6225710;28;20483;-59
2021/03/06 08:36:49;;;;;;;3.83;2.83;;;15.60;24.80;;;;;;6229699;28;20984;-59
2021/03/06 08:39:56;;;;;;;2.50;2.10;;;18.80;22.90;;;;;;6229124;28;20472;-59
2021/03/06 08:42:58;;;;;;;3.40;2.87;;;22.10;21.00;;;;;;6228895;28;20483;-59
2021/03/06 08:46:01;;;;;;;3.00;2.70;;;25.10;19.20;;;;;;6229107;28;20251;-60
2021/03/06 08:49:03;;;;;;;2.80;2.60;;;27.10;17.60;;;;;;6229101;28;20234;-60
2021/03/06 08:52:06;;;;;;;3.10;2.67;;;27.90;15.80;;;;;;6227958;28;20220;-60
2021/03/06 08:55:11;;;;;;;2.50;2.30;;;28.50;15.00;;;;;;6229151;28;20243;-60
2021/03/06 08:58:14;;;;;;;2.80;2.60;;;28.90;14.80;;;;;;6228607;28;20553;-60
2021/03/06 09:01:16;;;;;;;3.10;2.80;;;29.00;14.30;;;;;;6229765;28;20238;-60
2021/03/06 09:04:29;;;;;;;2.93;2.73;;;27.40;14.20;;;;;;6229339;28;20374;-61
2021/03/06 09:07:32;;;;;;;2.70;2.50;;;24.60;15.40;;;;;;6229205;28;20233;-61
2021/03/06 09:10:38;;;;;;;2.73;2.53;;;25.10;15.70;;;;;;6228402;28;20220;-60
2021/03/06 09:13:40;;;;;;;7.97;2.50;;;27.20;15.20;;;;;;6224330;28;20665;-60
2021/03/06 09:16:47;;;;;;;3.00;2.80;;;27.60;14.80;;;;;;6229112;28;20680;-61
2021/03/06 09:19:50;;;;;;;2.37;2.17;;;29.80;13.70;;;;;;6228910;28;20228;-61
2021/03/06 09:22:52;;;;;;;2.70;2.47;;;31.30;12.50;;;;;;6229588;28;20232;-61
2021/03/06 09:25:56;;;;;;;2.50;2.28;;;32.90;12.00;;;;;;6227819;28;20684;-61
2021/03/06 09:28:58;;;;;;;3.13;2.83;;;33.10;11.40;;;;;;6229155;28;20236;-61
2021/03/06 09:32:00;;;;;;;4.05;3.53;;;34.30;11.20;;;;;;6229039;28;20282;-61
2021/03/06 09:35:11;;;;;;;2.22;2.05;;;34.80;10.90;;;;;;6210285;28;20308;-63
2021/03/06 09:38:13;;;;;;;3.15;2.25;;;34.90;10.40;;;;;;6212096;28;20221;-61
2021/03/06 09:41:18;;;;;;;3.10;2.50;;;36.10;10.10;;;;;;6221414;28;20232;-62
2021/03/06 09:44:23;;;;;;;2.25;2.05;;;35.80;10.10;;;;;;6219282;28;20232;-61
2021/03/06 09:47:25;;;;;;;2.63;2.42;;;35.80;9.90;;;;;;6203158;28;20237;-61
2021/03/06 09:50:28;;;;;;;2.80;2.60;;;35.40;9.90;;;;;;6203382;28;20291;-61
2021/03/06 09:53:30;;;;;;;3.08;2.88;;;34.80;9.90;;;;;;6216486;28;20228;-62
2021/03/06 09:56:34;;;;;;;2.47;2.28;;;36.10;10.20;;;;;;6227495;28;20247;-62
2021/03/06 09:59:38;;;;;;;4.32;2.20;;;36.30;9.90;;;;;;6227514;28;20242;-62
2021/03/06 10:02:47;;;;;;;3.60;2.13;;;36.70;9.80;;;;;;6227503;28;20224;-62
2021/03/06 10:05:50;;;;;;;2.35;2.15;;;36.80;9.40;;;;;;6227365;28;20228;-62
2021/03/06 10:08:55;;;;;;;4.47;2.53;;;36.40;9.40;;;;;;6227587;28;20232;-62
2021/03/06 10:12:05;;;;;;;2.65;2.45;;;36.80;9.40;;;;;;6178739;28;20206;-62
2021/03/06 10:15:08;;;;;;;2.40;2.20;;;35.80;9.20;;;;;;6178495;28;20674;-62
2021/03/06 10:18:11;;;;;;;2.30;2.10;;;36.20;9.30;;;;;;6178561;28;20369;-62
2021/03/06 10:21:16;;;;;;;3.03;2.38;;;38.00;9.00;;;;;;6178465;28;20691;-61
2021/03/06 10:24:18;;;;;;;1.98;1.83;;;38.90;8.50;;;;;;6178726;28;20232;-61
2021/03/06 10:27:34;;;;;;;2.38;2.17;;;37.50;8.60;;;;;;6178453;28;20236;-61
2021/03/06 10:30:40;;;;;;;3.00;2.80;;;38.20;8.60;;;;;;6178234;28;20256;-61
2021/03/06 10:33:43;;;;;;;2.15;1.95;;;38.90;8.60;;;;;;6178256;28;20674;-59
2021/03/06 10:37:04;;;;;;;3.00;2.67;;;40.20;8.40;;;;;;6178686;28;20273;-62
2021/03/06 10:40:09;;;;;;;3.03;2.08;;;41.50;8.00;;;;;;6178214;28;20230;-62
2021/03/06 10:43:28;;;;;;;3.05;2.30;;;41.80;7.70;;;;;;6180319;28;20230;-61
2021/03/06 10:46:32;;;;;;;4.65;2.15;;;41.30;7.30;;;;;;6226345;28;20334;-60
2021/03/06 10:49:36;;;;;;;3.20;2.33;;;41.00;8.00;;;;;;6226474;28;20228;-65
2021/03/06 10:52:39;;;;;;;2.22;2.10;;;40.20;7.70;;;;;;6217347;28;20248;-62
2021/03/06 10:55:42;;;;;;;3.25;2.20;;;40.50;7.90;;;;;;6226140;28;20247;-61
2021/03/06 10:58:50;;;;;;;2.60;2.10;;;40.00;7.70;;;;;;6225346;28;20563;-60
2021/03/06 11:02:07;;;;;;;3.75;2.17;;;37.20;8.10;;;;;;6226251;28;20228;-62
2021/03/06 11:05:18;;;;;;;2.40;2.20;;;36.90;8.30;;;;;;6226034;28;20740;-62
2021/03/06 11:08:21;;;;;;;2.33;2.13;;;37.90;8.50;;;;;;6226018;28;20225;-61
2021/03/06 11:11:25;;;;;;;2.60;2.00;;;39.70;8.30;;;;;;6212613;28;20229;-62
2021/03/06 11:14:29;;;;;;;2.38;2.17;;;40.20;8.00;;;;;;6201439;28;20243;-62
2021/03/06 11:17:32;;;;;;;2.50;2.03;;;41.00;8.00;;;;;;6201216;28;20229;-62
2021/03/06 11:20:35;;;;;;;2.63;2.28;;;41.20;7.50;;;;;;6201215;28;20633;-61
2021/03/06 11:23:37;;;;;;;2.38;2.17;;;41.20;7.70;;;;;;6201142;28;20254;-62
2021/03/06 11:26:40;;;;;;;2.42;2.22;;;42.60;8.10;;;;;;6201038;28;20315;-61
2021/03/06 11:29:43;;;;;;;2.58;2.38;;;42.20;7.20;;;;;;6201085;28;20221;-60
2021/03/06 11:32:47;;;;;;;1.80;1.70;;;40.30;7.70;;;;;;6201127;28;20711;-61
2021/03/06 11:35:51;;;;;;;3.13;2.55;;;35.90;8.40;;;;;;6200979;28;20225;-60
2021/03/06 11:38:53;;;;;;;2.00;1.80;;;38.10;8.90;;;;;;6200859;28;20225;-62
2021/03/06 11:41:55;;;;;;;2.45;2.25;;;39.90;7.80;;;;;;6200709;28;20209;-63
2021/03/06 11:44:58;;;;;;;2.35;2.15;;;41.20;7.60;;;;;;6216367;28;20232;-62
2021/03/06 11:48:01;;;;;;;2.20;2.00;;;41.70;7.80;;;;;;6225372;28;20262;-62
2021/03/06 11:51:04;;;;;;;2.55;2.35;;;38.70;7.70;;;;;;6225235;28;20205;-61
2021/03/06 11:54:07;;;;;;;2.55;2.35;;;36.30;8.20;;;;;;6220076;28;20205;-62
2021/03/06 11:57:09;;;;;;;3.00;1.92;;;34.60;8.80;;;;;;6224626;28;20251;-60
2021/03/06 12:00:14;;;;;;;2.42;2.22;;;34.30;9.00;;;;;;6224799;28;20232;-61
2021/03/06 12:03:16;;;;;;;2.70;2.50;;;35.90;8.50;;;;;;6224763;28;20565;-62
2021/03/06 12:06:19;;;;;;;2.72;2.35;;;37.50;8.40;;;;;;6224770;28;20228;-61
2021/03/06 12:09:21;;;;;;;2.97;2.70;;;37.40;8.20;;;;;;6224862;28;20239;-61
2021/03/06 12:12:23;;;;;;;3.10;2.80;;;35.80;8.80;;;;;;6224825;28;20224;-61
2021/03/06 12:15:27;;;;;;;2.60;2.38;;;34.10;8.90;;;;;;6224646;28;20255;-60
2021/03/06 12:18:29;;;;;;;2.50;2.30;;;31.90;9.60;;;;;;6224580;28;20228;-60
2021/03/06 12:21:32;;;;;;;2.30;2.10;;;32.30;9.50;;;;;;6224672;28;20235;-60
2021/03/06 12:24:34;;;;;;;3.05;1.95;;;32.20;9.80;;;;;;6224402;28;20680;-61
2021/03/06 12:27:38;;;;;;;2.80;2.22;;;34.20;9.10;;;;;;6224302;28;20551;-61
2021/03/06 12:30:41;;;;;;;2.00;1.90;;;34.00;8.90;;;;;;6224571;28;20238;-61
2021/03/06 12:33:43;;;;;;;2.20;2.00;;;36.00;9.00;;;;;;6224569;28;20231;-60
2021/03/06 12:36:46;;;;;;;3.08;1.92;;;36.30;8.60;;;;;;6215060;28;20243;-61
2021/03/06 12:39:49;;;;;;;2.40;2.17;;;35.60;8.50;;;;;;6176021;28;20234;-63
2021/03/06 12:42:51;;;;;;;2.83;2.33;;;35.90;8.60;;;;;;6175816;28;20570;-60
2021/03/06 12:45:54;;;;;;;2.20;1.98;;;35.80;8.70;;;;;;6221258;28;20234;-60
2021/03/06 12:48:56;;;;;;;3.47;2.22;;;37.50;8.50;;;;;;6224443;28;20232;-61
2021/03/06 12:51:58;;;;;;;2.50;2.30;;;38.20;8.00;;;;;;6224310;28;20366;-60
2021/03/06 12:55:06;;;;;;;2.55;2.28;;;37.30;8.70;;;;;;6223937;28;20259;-61
2021/03/06 12:58:08;;;;;;;2.63;2.10;;;37.10;8.20;;;;;;6215140;28;20236;-62
2021/03/06 13:01:11;;;;;;;2.55;2.35;;;36.30;8.00;;;;;;6224094;28;20319;-61
2021/03/06 13:04:14;;;;;;;2.67;2.47;;;34.10;8.90;;;;;;6224086;28;20589;-62
2021/03/06 13:07:16;;;;;;;2.33;2.13;;;35.30;9.30;;;;;;6223778;28;20596;-60
2021/03/06 13:10:18;;;;;;;2.42;2.22;;;37.60;8.20;;;;;;6223969;28;20228;-61
2021/03/06 13:13:20;;;;;;;2.45;2.05;;;38.80;8.30;;;;;;6223760;28;20224;-62
2021/03/06 13:16:24;;;;;;;4.78;2.65;;;38.90;7.80;;;;;;6223850;28;20244;-61
2021/03/06 13:19:26;;;;;;;3.40;2.97;;;40.20;7.60;;;;;;6223521;28;20329;-61
2021/03/06 13:22:28;;;;;;;2.53;2.33;;;40.70;7.50;;;;;;6228124;28;20727;-61
2021/03/06 13:25:30;;;;;;;1.90;1.80;;;41.10;7.30;;;;;;6228289;28;20239;-63
2021/03/06 13:28:33;;;;;;;3.08;2.55;;;39.60;7.40;;;;;;6228363;28;20233;-60
2021/03/06 13:31:39;;;;;;;2.72;2.53;;;36.90;8.00;;;;;;6228172;28;20237;-63
2021/03/06 13:34:42;;;;;;;2.72;2.22;;;35.00;8.40;;;;;;6228186;28;20232;-61
2021/03/06 13:37:45;;;;;;;2.60;2.40;;;33.40;9.80;;;;;;6202941;28;20217;-60
2021/03/06 13:40:47;;;;;;;2.80;2.60;;;30.90;9.60;;;;;;6179495;28;20693;-61
2021/03/06 13:43:50;;;;;;;2.87;2.60;;;30.10;10.30;;;;;;6191722;28;20572;-61
2021/03/06 13:46:53;;;;;;;3.00;2.43;;;30.10;10.40;;;;;;6227811;28;20232;-61
2021/03/06 13:49:56;;;;;;;2.20;2.07;;;28.80;10.60;;;;;;6227773;28;20243;-61
2021/03/06 13:52:59;;;;;;;2.80;2.60;;;27.00;11.30;;;;;;6227780;28;20232;-62
2021/03/06 13:56:01;;;;;;;2.80;2.57;;;25.50;11.90;;;;;;6227801;28;20229;-61
2021/03/06 13:59:04;;;;;;;2.77;2.30;;;24.50;12.40;;;;;;6227522;28;20229;-59
2021/03/06 14:02:08;;;;;;;2.70;2.50;;;23.10;12.80;;;;;;6222737;28;20569;-60
2021/03/06 14:05:10;;;;;;;3.33;2.10;;;21.20;13.60;;;;;;6227230;28;20244;-61
2021/03/06 14:08:13;;;;;;;3.00;2.23;;;18.60;14.60;;;;;;6227253;28;20569;-60
2021/03/06 14:11:15;;;;;;;1.90;1.80;;;17.10;15.50;;;;;;6226933;28;20483;-60
2021/03/06 14:14:18;;;;;;;2.40;2.20;;;16.20;16.10;;;;;;6227565;28;20469;-60
2021/03/06 14:17:21;;;;;;;2.80;2.60;;;15.20;17.00;;;;;;6227000;28;20472;-60
2021/03/06 14:20:23;;;;;;;2.37;2.17;;;14.00;17.80;;;;;;6226646;28;20484;-61
2021/03/06 14:23:26;;;;;;;2.67;2.27;;;12.80;18.90;;;;;;6226896;28;20491;-60
2021/03/06 14:26:29;;;;;;;2.40;2.00;;;12.20;19.50;;;;;;6226830;28;20555;-60
2021/03/06 14:29:31;;;;;;;2.60;2.40;;;11.70;20.00;;;;;;6226681;28;20460;-60
2021/03/06 14:32:34;;;;;;;2.43;2.20;;;11.40;20.40;;;;;;6225736;28;20464;-61
2021/03/06 14:35:37;;;;;;;2.30;2.10;;;11.30;20.70;;;;;;6226454;28;20472;-59
2021/03/06 14:38:39;;;;;;;3.70;2.50;;;11.10;20.90;;;;;;6186475;28;20509;-60
2021/03/06 14:41:47;;;;;;;2.90;2.30;;;10.70;21.20;;;;;;6177759;28;20534;-60
2021/03/06 14:44:50;;;;;;;2.80;2.20;;;10.10;21.60;;;;;;6206001;28;20475;-59
2021/03/06 14:47:53;;;;;;;2.23;2.03;;;10.20;21.90;;;;;;6226573;28;20441;-60
2021/03/06 14:50:55;;;;;;;2.57;2.27;;;10.40;21.60;;;;;;6226564;28;20448;-61
2021/03/06 14:53:57;;;;;;;2.37;2.10;;;10.30;21.70;;;;;;6225735;28;20633;-63
2021/03/06 14:57:00;;;;;;;2.40;2.20;;;10.20;22.00;;;;;;6225629;28;20460;-60
2021/03/06 15:00:02;;;;;;;2.57;2.27;;;10.00;22.30;;;;;;6225908;28;20575;-61
2021/03/06 15:03:06;;;;;;;3.27;2.50;;;9.90;23.30;;;;;;6221798;28;20436;-59
2021/03/06 15:06:09;;;;;;;2.43;2.23;;;9.80;23.20;;;;;;6225783;28;20471;-61
2021/03/06 15:09:11;;;;;;;2.27;2.10;;;9.60;23.30;;;;;;6225818;28;20456;-61
2021/03/06 15:12:15;;;;;;;3.40;2.20;;;9.30;23.50;;;;;;6225711;28;20543;-61
2021/03/06 15:15:17;;;;;;;2.17;1.97;;;9.30;23.90;;;;;;6225697;28;20467;-60
2021/03/06 15:18:20;;;;;;;2.60;2.40;;;9.30;24.00;;;;;;6225699;28;20479;-62
2021/03/06 15:21:23;;;;;;;4.07;2.67;;;9.20;24.20;;;;;;6225102;28;20478;-61
2021/03/06 15:24:25;;;;;;;4.50;2.63;;;8.90;24.80;;;;;;6225462;28;20468;-60
2021/03/06 15:27:28;;;;;;;2.70;2.07;;;8.80;24.70;;;;;;6225416;28;20480;-60
2021/03/06 15:30:30;;;;;;;2.80;2.60;;;8.90;24.70;;;;;;6225416;28;20468;-61
2021/03/06 15:33:34;;;;;;;3.20;2.40;;;8.90;24.60;;;;;;6225360;28;20532;-61
2021/03/06 15:36:37;;;;;;;2.60;2.40;;;8.90;24.70;;;;;;6217799;28;20620;-58
2021/03/06 15:39:39;;;;;;;2.70;2.50;;;8.70;24.60;;;;;;6176814;28;20933;-60
2021/03/06 15:42:41;;;;;;;4.13;2.27;;;8.60;24.90;;;;;;6176722;28;20485;-60
2021/03/06 15:45:43;;;;;;;2.87;2.67;;;8.70;24.70;;;;;;6219493;28;20482;-60
2021/03/06 15:48:46;;;;;;;2.73;2.17;;;8.70;24.60;;;;;;6224927;28;20487;-60
2021/03/06 15:51:50;;;;;;;4.50;2.30;;;8.70;24.60;;;;;;6225165;28;20476;-60
2021/03/06 15:54:52;;;;;;;2.77;2.40;;;8.60;25.70;;;;;;6225143;28;20472;-59
2021/03/06 15:57:54;;;;;;;2.70;2.50;;;8.80;26.00;;;;;;6224629;28;20482;-59
2021/03/06 16:00:57;;;;;;;2.30;2.10;;;8.90;25.50;;;;;;6224933;28;20476;-60
2021/03/06 16:04:00;;;;;;;2.07;1.87;;;8.80;25.10;;;;;;6224655;28;20508;-60
2021/03/06 16:07:03;;;;;;;2.57;2.37;;;8.70;25.40;;;;;;6224323;28;20920;-60